createdAt,value
2022-12-07T00:02:38.921Z,64.9
2022-12-07T00:07:33.559Z,63.9
2022-12-07T00:12:28.419Z,64.8
2022-12-07T00:17:23.136Z,65.8
2022-12-07T00:22:17.942Z,66
2022-12-07T00:27:12.651Z,66.6
2022-12-07T00:32:07.476Z,66.2
2022-12-07T00:37:02.096Z,67.2
2022-12-07T00:41:56.585Z,67.6
2022-12-07T00:46:51.295Z,67.9
2022-12-07T00:51:46.096Z,67.6
2022-12-07T00:56:40.844Z,68.3
2022-12-07T01:01:35.493Z,67.9
2022-12-07T01:06:29.960Z,68
2022-12-07T01:11:24.849Z,68.2
2022-12-07T01:16:19.638Z,68
2022-12-07T01:21:14.151Z,68
2022-12-07T01:26:08.839Z,67.5
2022-12-07T01:31:03.587Z,68
2022-12-07T01:35:58.058Z,67.5
2022-12-07T01:40:52.854Z,67.5
2022-12-07T01:45:47.553Z,68
2022-12-07T01:50:42.008Z,67.4
2022-12-07T01:55:36.841Z,68
2022-12-07T02:00:30.643Z,68.1
2022-12-07T02:05:25.557Z,68.5
2022-12-07T02:10:20.494Z,68.7
2022-12-07T02:15:15.080Z,68.6
2022-12-07T02:20:09.751Z,68.5
2022-12-07T02:25:04.583Z,68.7
2022-12-07T02:29:59.417Z,68.9
2022-12-07T02:34:54.008Z,69.1
2022-12-07T02:39:48.860Z,69.2
2022-12-07T02:44:43.272Z,69
2022-12-07T02:49:38.080Z,69.4
2022-12-07T02:54:32.938Z,69.6
2022-12-07T02:59:27.615Z,69.6
2022-12-07T03:04:21.921Z,69.3
2022-12-07T03:09:16.847Z,68.9
2022-12-07T03:14:11.062Z,68.9
2022-12-07T03:19:05.650Z,69
2022-12-07T03:24:00.360Z,68.9
2022-12-07T03:28:55.007Z,68.3
2022-12-07T03:33:49.735Z,69
2022-12-07T03:38:44.390Z,68.9
2022-12-07T03:43:39.226Z,68.6
2022-12-07T03:48:34.093Z,69.3
2022-12-07T03:53:28.729Z,69.2
2022-12-07T03:58:23.587Z,69.3
2022-12-07T04:03:18.330Z,69.5
2022-12-07T04:08:13.094Z,69.5
2022-12-07T04:13:55.085Z,69.6
2022-12-07T04:18:48.960Z,69.4
2022-12-07T04:23:43.303Z,69.4
2022-12-07T04:28:37.195Z,69.3
2022-12-07T04:33:31.145Z,69.2
2022-12-07T04:38:25.798Z,69.4
2022-12-07T04:43:20.544Z,69.5
2022-12-07T04:48:14.925Z,69.5
2022-12-07T04:53:09.446Z,69.8
2022-12-07T04:58:03.853Z,69.7
2022-12-07T05:02:57.943Z,69.7
2022-12-07T05:07:52.478Z,69.2
2022-12-07T05:12:47.348Z,67.1
2022-12-07T05:17:42.460Z,66.5
2022-12-07T05:22:37.773Z,65.6
2022-12-07T05:27:32.682Z,64.7
2022-12-07T05:32:27.856Z,63.8
2022-12-07T05:37:23.121Z,62
2022-12-07T05:42:17.814Z,61.3
2022-12-07T05:47:13.129Z,60.1
2022-12-07T05:52:08.485Z,59.4
2022-12-07T05:57:03.623Z,58.1
2022-12-07T06:01:59.036Z,56.8
2022-12-07T06:06:53.717Z,55.9
2022-12-07T06:11:47.821Z,56.4
2022-12-07T06:16:42.815Z,56.4
2022-12-07T06:21:37.163Z,54.8
2022-12-07T06:26:31.927Z,56.6
2022-12-07T06:31:27.467Z,55.8
2022-12-07T06:36:26.994Z,56.4
2022-12-07T06:41:16.652Z,56.9
2022-12-07T06:46:10.940Z,57
2022-12-07T06:51:04.902Z,57.8
2022-12-07T06:55:58.771Z,57.8
2022-12-07T07:00:53.585Z,58.3
2022-12-07T07:05:47.854Z,58.7
2022-12-07T07:10:42.492Z,58.7
2022-12-07T07:15:36.788Z,51.9
2022-12-07T07:20:28.715Z,54.1
2022-12-07T07:25:21.805Z,57.2
2022-12-07T07:30:16.160Z,60.4
2022-12-07T07:35:13.028Z,58.9
2022-12-07T07:40:08.497Z,57
2022-12-07T07:45:03.441Z,57.3
2022-12-07T07:49:58.439Z,57.7
2022-12-07T07:54:52.226Z,56.7
2022-12-07T07:59:46.415Z,58.8
2022-12-07T08:04:41.136Z,57.8
2022-12-07T08:09:35.646Z,57.8
2022-12-07T08:14:30.164Z,57.6
2022-12-07T08:19:24.969Z,57.7
2022-12-07T08:24:19.214Z,57.9
2022-12-07T08:29:13.964Z,58
2022-12-07T08:34:08.711Z,57.7
2022-12-07T08:39:31.947Z,57.8
2022-12-07T08:43:56.953Z,57.4
2022-12-07T08:48:51.745Z,58.8
2022-12-07T08:53:46.370Z,57.4
2022-12-07T08:58:41.149Z,58.2
2022-12-07T09:03:35.773Z,58.3
2022-12-07T09:08:30.282Z,60.9
2022-12-07T09:13:25.319Z,62.8
2022-12-07T09:18:19.289Z,62.3
2022-12-07T09:23:14.020Z,61.2
2022-12-07T09:28:08.640Z,60.1
2022-12-07T09:33:03.353Z,59.4
2022-12-07T09:37:58.164Z,59.7
2022-12-07T09:42:52.747Z,59.7
2022-12-07T09:47:47.460Z,61.6
2022-12-07T09:52:42.327Z,61.5
2022-12-07T09:57:36.442Z,61.3
2022-12-07T10:02:30.979Z,60.9
2022-12-07T10:07:25.880Z,61.2
2022-12-07T10:12:20.453Z,61.2
2022-12-07T10:17:14.288Z,61.4
2022-12-07T10:22:09.117Z,61.2
2022-12-07T10:27:03.837Z,60.8
2022-12-07T10:31:59.174Z,60.3
2022-12-07T10:36:54.070Z,59.4
2022-12-07T10:41:49.359Z,58.9
2022-12-07T10:46:44.006Z,58.1
2022-12-07T10:51:39.684Z,56.9
2022-12-07T10:56:34.297Z,56.2
2022-12-07T11:01:29.304Z,55.3
2022-12-07T11:06:24.291Z,54.6
2022-12-07T11:11:19.324Z,54.5
2022-12-07T11:16:14.305Z,54.4
2022-12-07T11:21:08.289Z,54.2
2022-12-07T11:26:02.851Z,54.2
2022-12-07T11:30:57.586Z,54.5
2022-12-07T11:35:52.466Z,54.4
2022-12-07T11:40:47.478Z,54.7
2022-12-07T11:45:42.279Z,55.1
2022-12-07T11:50:36.845Z,55.5
2022-12-07T11:55:31.614Z,55
2022-12-07T12:00:26.112Z,55.7
2022-12-07T12:05:20.003Z,55.4
2022-12-07T12:10:14.551Z,55.4
2022-12-07T12:15:08.438Z,55.1
2022-12-07T12:20:03.437Z,54.9
2022-12-07T12:24:58.376Z,55.4
2022-12-07T12:29:53.005Z,55
2022-12-07T12:34:50.612Z,55.6
2022-12-07T12:39:42.201Z,55.8
2022-12-07T12:44:36.932Z,55.9
2022-12-07T12:49:31.476Z,55.9
2022-12-07T12:54:26.122Z,56
2022-12-07T12:59:20.636Z,56.8
2022-12-07T13:04:15.330Z,56.8
2022-12-07T13:09:09.957Z,57
2022-12-07T13:14:04.456Z,57.5
2022-12-07T13:18:59.176Z,57.1
2022-12-07T13:23:53.645Z,57.5
2022-12-07T13:28:47.504Z,58.3
2022-12-07T13:33:42.122Z,58.2
2022-12-07T13:38:36.549Z,58.1
2022-12-07T13:43:31.179Z,57.6
2022-12-07T13:48:24.619Z,57.1
2022-12-07T13:53:18.940Z,57.6
2022-12-07T13:58:13.764Z,57.1
2022-12-07T14:03:09.089Z,57.1
2022-12-07T14:08:04.916Z,56.4
2022-12-07T14:13:00.306Z,55
2022-12-07T14:17:54.739Z,54.3
2022-12-07T14:22:50.437Z,53.7
2022-12-07T14:27:47.698Z,53.3
2022-12-07T14:32:41.615Z,52.3
2022-12-07T14:37:36.309Z,52
2022-12-07T14:42:31.114Z,53
2022-12-07T14:57:14.749Z,54.4
2022-12-07T15:02:09.532Z,54.7
2022-12-07T15:07:03.882Z,54.9
2022-12-07T15:11:58.368Z,54.7
2022-12-07T15:17:08.243Z,54.9
2022-12-07T15:21:47.767Z,55.2
2022-12-07T15:26:42.306Z,55.4
2022-12-07T15:31:54.944Z,55.4
2022-12-07T15:36:31.588Z,55.1
2022-12-07T15:41:26.038Z,54.7
2022-12-07T15:46:19.845Z,55.3
2022-12-07T15:51:14.340Z,55.6
2022-12-07T15:56:08.972Z,55.5
2022-12-07T16:01:04.165Z,55.5
2022-12-07T16:05:59.394Z,54.8
2022-12-07T16:10:54.366Z,54.6
2022-12-07T16:15:49.304Z,54.8
2022-12-07T16:20:44.631Z,54.9
2022-12-07T16:25:39.640Z,55.4
2022-12-07T16:30:34.317Z,55.9
2022-12-07T16:35:29.109Z,56.7
2022-12-07T16:40:24.043Z,57.3
2022-12-07T16:45:20.892Z,57.5
2022-12-07T16:50:13.859Z,58.5
2022-12-07T16:55:08.918Z,59.9
2022-12-07T17:00:03.473Z,57.3
2022-12-07T17:04:57.877Z,58.2
2022-12-07T17:09:52.408Z,57.3
2022-12-07T17:14:47.014Z,56.5
2022-12-07T17:19:41.664Z,56.6
2022-12-07T17:24:36.668Z,56.6
2022-12-07T17:29:31.360Z,56.2
2022-12-07T17:34:26.152Z,58.8
2022-12-07T17:39:20.881Z,58.4
2022-12-07T17:44:15.576Z,57.7
2022-12-07T17:49:10.436Z,59.3
2022-12-07T17:54:05.239Z,59.1
2022-12-07T17:59:00.049Z,58.2
2022-12-07T18:03:54.112Z,57.8
2022-12-07T18:08:48.352Z,61.2
2022-12-07T18:13:43.343Z,60.2
2022-12-07T18:18:38.332Z,59.1
2022-12-07T18:23:33.250Z,58.6
2022-12-07T18:28:28.080Z,57.5
2022-12-07T18:33:23.191Z,56.7
2022-12-07T18:38:18.092Z,55.9
2022-12-07T18:43:13.182Z,55
2022-12-07T18:48:08.261Z,54.7
2022-12-07T18:53:02.979Z,53.8
2022-12-07T18:57:57.568Z,52.4
2022-12-07T19:02:52.484Z,53.5
2022-12-07T19:07:47.268Z,52.7
2022-12-07T19:12:41.892Z,53.1
2022-12-07T19:17:36.655Z,54.1
2022-12-07T19:22:31.421Z,53.5
2022-12-07T19:27:26.040Z,53.6
2022-12-07T19:32:22.813Z,54.7
2022-12-07T19:37:17.247Z,55.1
2022-12-07T19:42:12.077Z,55
2022-12-07T19:47:05.891Z,54.8
2022-12-07T19:51:59.666Z,55.2
2022-12-07T19:56:54.213Z,55.2
2022-12-07T20:01:49.357Z,55.4
2022-12-07T20:06:44.004Z,55.3
2022-12-07T20:11:38.734Z,55.3
2022-12-07T20:16:33.421Z,55.8
2022-12-07T20:21:28.007Z,56.3
2022-12-07T20:26:22.739Z,56.4
2022-12-07T20:31:17.340Z,56.3
2022-12-07T20:36:12.204Z,56.3
2022-12-07T20:41:07.093Z,56.6
2022-12-07T20:46:02.145Z,56.7
2022-12-07T20:50:56.830Z,56.8
2022-12-07T20:55:51.676Z,57.7
2022-12-07T21:00:45.767Z,57.7
2022-12-07T21:05:40.299Z,57.6
2022-12-07T21:10:34.799Z,58.2
2022-12-07T21:15:29.514Z,58.1
2022-12-07T21:20:24.167Z,57.9
2022-12-07T21:25:19.120Z,58.4
2022-12-07T21:30:13.990Z,58.8
2022-12-07T21:35:07.844Z,58.4
2022-12-07T21:40:02.496Z,58.9
2022-12-07T21:44:57.243Z,59.1
2022-12-07T21:49:51.876Z,59.6
2022-12-07T21:54:46.536Z,60.2
2022-12-07T21:59:41.187Z,59.7
2022-12-07T22:04:35.850Z,60.1
2022-12-07T22:09:30.056Z,60.5
2022-12-07T22:14:24.800Z,60.4
2022-12-07T22:19:19.656Z,61
2022-12-07T22:24:14.642Z,60.8
2022-12-07T22:29:09.465Z,61.5
2022-12-07T22:34:04.253Z,61.1
2022-12-07T22:38:58.908Z,61.7
2022-12-07T22:43:53.788Z,61.5
2022-12-07T22:48:47.709Z,61.7
2022-12-07T22:53:41.734Z,62.2
2022-12-07T22:58:36.448Z,62.4
2022-12-07T23:03:31.305Z,62.8
2022-12-07T23:08:26.322Z,61.9
2022-12-07T23:13:20.902Z,62.8
2022-12-07T23:18:15.370Z,62.6
2022-12-07T23:23:10.088Z,62.9
2022-12-07T23:28:04.833Z,62.3
2022-12-07T23:32:59.454Z,62.8
2022-12-07T23:37:53.312Z,63
2022-12-07T23:42:48.295Z,63.6
2022-12-07T23:47:42.206Z,63.3
2022-12-07T23:52:36.843Z,64
2022-12-07T23:57:31.674Z,64.5
